Time;durP1;ratioP1;P1;durP2;ratioP2;P2;SDS_P1;SDS_P2;PMS_P1;PMS_P2;Temp;Humidity;BMP_temperature;BMP_pressure;BME280_temperature;BME280_humidity;BME280_pressure;Samples;Min_cycle;Max_cycle;Signal;HPM_P1;HPM_P2
2021/03/04 00:00:34;;;;;;;72.40;40.08;;;10.50;88.70;;;;;;5071355;28;20370;-73
2021/03/04 00:03:01;;;;;;;64.50;39.22;;;10.50;88.60;;;;;;5059034;28;20051;-73
2021/03/04 00:05:27;;;;;;;69.20;39.63;;;10.50;88.80;;;;;;5051321;28;20033;-72
2021/03/04 00:07:52;;;;;;;69.68;39.17;;;10.40;89.20;;;;;;5057802;28;20025;-73
2021/03/04 00:10:20;;;;;;;71.40;39.13;;;10.40;88.90;;;;;;5071404;28;20030;-72
2021/03/04 00:12:46;;;;;;;68.80;42.67;;;10.40;89.20;;;;;;5061328;28;20525;-73
2021/03/04 00:15:14;;;;;;;75.22;42.72;;;10.40;89.90;;;;;;5050099;28;20028;-73
2021/03/04 00:17:40;;;;;;;74.72;43.05;;;10.40;89.90;;;;;;5055209;28;20040;-73
2021/03/04 00:20:10;;;;;;;71.68;40.35;;;10.30;90.10;;;;;;5071229;28;20074;-73
2021/03/04 00:22:36;;;;;;;71.50;40.50;;;10.30;90.00;;;;;;5067559;28;20041;-72
2021/03/04 00:25:03;;;;;;;68.28;40.17;;;10.30;90.00;;;;;;5071151;28;20466;-73
2021/03/04 00:27:28;;;;;;;76.13;43.92;;;10.30;90.10;;;;;;5063513;28;20037;-73
2021/03/04 00:29:54;;;;;;;70.38;42.13;;;10.30;90.20;;;;;;5051011;28;20029;-73
2021/03/04 00:32:19;;;;;;;82.50;45.35;;;10.30;90.30;;;;;;5053463;28;20040;-72
2021/03/04 00:34:45;;;;;;;80.00;44.60;;;10.20;90.40;;;;;;5074973;28;20024;-72
2021/03/04 00:37:10;;;;;;;67.75;40.85;;;10.20;90.40;;;;;;5069599;28;20465;-72
2021/03/04 00:39:36;;;;;;;78.72;44.22;;;10.20;90.40;;;;;;5054716;28;20121;-72
2021/03/04 00:42:01;;;;;;;79.40;43.92;;;10.10;90.60;;;;;;5052293;28;20028;-73
2021/03/04 00:44:27;;;;;;;80.90;45.33;;;10.10;90.60;;;;;;5054326;28;20036;-72
2021/03/04 00:46:52;;;;;;;77.93;44.10;;;10.20;90.60;;;;;;5053848;28;20501;-71
2021/03/04 00:49:18;;;;;;;77.63;45.47;;;10.10;90.50;;;;;;5054635;28;20017;-72
2021/03/04 00:51:43;;;;;;;80.53;45.17;;;10.10;90.50;;;;;;5053825;28;20032;-73
2021/03/04 00:54:09;;;;;;;74.97;42.95;;;10.10;90.40;;;;;;5072353;28;20031;-72
2021/03/04 00:56:35;;;;;;;72.70;42.72;;;10.10;90.50;;;;;;5074087;28;20040;-72
2021/03/04 00:59:01;;;;;;;72.90;40.90;;;10.10;90.50;;;;;;5053902;28;20033;-72
2021/03/04 01:01:26;;;;;;;77.47;42.80;;;10.00;90.40;;;;;;5072874;28;20064;-72
2021/03/04 01:03:52;;;;;;;71.03;40.70;;;10.00;90.40;;;;;;5071688;28;20441;-72
2021/03/04 01:06:19;;;;;;;75.75;41.30;;;9.90;90.50;;;;;;5074237;28;20533;-73
2021/03/04 01:08:45;;;;;;;78.13;42.97;;;9.90;90.50;;;;;;5056213;28;20033;-73
2021/03/04 01:11:12;;;;;;;70.68;41.47;;;9.90;90.40;;;;;;5053263;28;20079;-72
2021/03/04 01:13:38;;;;;;;80.30;42.75;;;9.90;90.30;;;;;;5051662;28;20032;-71
2021/03/04 01:16:03;;;;;;;74.50;43.25;;;9.90;90.30;;;;;;5052618;28;20032;-71
2021/03/04 01:18:29;;;;;;;71.13;43.67;;;9.80;90.40;;;;;;5066551;28;20025;-72
2021/03/04 01:20:55;;;;;;;68.35;42.33;;;9.80;90.60;;;;;;5074236;28;20116;-70
2021/03/04 01:23:20;;;;;;;76.20;43.63;;;9.80;90.30;;;;;;5048326;28;20328;-72
2021/03/04 01:25:46;;;;;;;73.40;41.08;;;9.80;90.40;;;;;;5052710;28;20045;-72
2021/03/04 01:28:11;;;;;;;72.32;41.65;;;9.80;90.40;;;;;;5063103;28;20116;-72
2021/03/04 01:30:37;;;;;;;73.20;43.00;;;9.70;90.50;;;;;;5073573;28;20181;-72
2021/03/04 01:33:03;;;;;;;73.45;41.08;;;9.70;90.50;;;;;;5070570;28;20025;-72
2021/03/04 01:35:28;;;;;;;81.10;43.58;;;9.70;90.40;;;;;;5073780;28;20024;-72
2021/03/04 01:37:54;;;;;;;74.13;43.78;;;9.70;90.40;;;;;;5062753;28;20070;-72
2021/03/04 01:40:23;;;;;;;70.85;40.03;;;9.70;90.40;;;;;;5054976;28;20037;-72
2021/03/04 01:42:52;;;;;;;70.45;40.47;;;9.70;90.50;;;;;;5074751;28;20028;-72
2021/03/04 01:45:18;;;;;;;76.68;43.38;;;9.70;90.50;;;;;;5085770;28;20029;-71
2021/03/04 01:47:54;;;;;;;73.00;43.17;;;9.60;90.50;;;;;;5075252;28;20040;-71
2021/03/04 01:50:21;;;;;;;72.90;40.75;;;9.70;90.60;;;;;;5073658;28;20063;-72
2021/03/04 01:52:48;;;;;;;77.28;42.38;;;9.60;90.70;;;;;;5068997;28;20071;-72
2021/03/04 01:55:16;;;;;;;78.82;43.22;;;9.60;90.70;;;;;;5073771;28;20070;-71
2021/03/04 01:57:43;;;;;;;74.25;42.40;;;9.50;90.80;;;;;;5063892;28;20052;-72
2021/03/04 02:00:10;;;;;;;73.13;43.15;;;9.40;90.80;;;;;;5053622;28;20444;-72
2021/03/04 02:02:36;;;;;;;81.78;44.88;;;9.50;90.80;;;;;;5057971;28;20067;-72
2021/03/04 02:05:04;;;;;;;71.03;42.58;;;9.40;90.90;;;;;;5073119;28;20060;-72
2021/03/04 02:07:58;;;;;;;75.82;43.85;;;9.40;90.90;;;;;;5065972;28;20021;-71
2021/03/04 02:10:37;;;;;;;80.88;44.45;;;9.40;91.00;;;;;;5054590;28;20090;-72
2021/03/04 02:13:05;;;;;;;79.78;46.03;;;9.40;91.10;;;;;;5066693;28;20060;-73
2021/03/04 02:15:37;;;;;;;75.25;44.65;;;9.30;91.10;;;;;;5072714;28;20045;-72
2021/03/04 02:18:07;;;;;;;75.28;43.67;;;9.30;91.20;;;;;;5069846;28;20037;-72
2021/03/04 02:20:36;;;;;;;77.00;43.92;;;9.30;91.30;;;;;;5072641;28;20033;-72
2021/03/04 02:23:30;;;;;;;79.93;45.22;;;9.30;91.30;;;;;;5053458;28;20029;-71
2021/03/04 02:26:14;;;;;;;73.45;43.85;;;9.20;91.30;;;;;;5015675;28;20049;-72
2021/03/04 02:28:40;;;;;;;83.65;46.63;;;9.20;91.30;;;;;;5052714;28;20033;-73
2021/03/04 02:31:08;;;;;;;86.20;48.33;;;9.20;91.30;;;;;;5051886;28;20112;-73
2021/03/04 02:33:34;;;;;;;83.18;47.83;;;9.20;91.40;;;;;;5052704;28;20057;-72
2021/03/04 02:36:01;;;;;;;87.15;47.88;;;9.20;91.40;;;;;;5049468;28;20055;-72
2021/03/04 02:38:28;;;;;;;83.50;46.17;;;9.10;91.60;;;;;;5072488;28;20399;-73
2021/03/04 02:40:55;;;;;;;79.88;47.05;;;9.10;91.70;;;;;;5070763;28;20025;-72
2021/03/04 02:43:24;;;;;;;81.18;47.05;;;9.10;91.70;;;;;;5051957;28;20055;-72
2021/03/04 02:45:51;;;;;;;82.50;47.08;;;9.00;91.70;;;;;;5051726;28;20048;-72
2021/03/04 02:48:19;;;;;;;89.93;50.55;;;9.00;91.80;;;;;;5071394;28;20028;-72
2021/03/04 02:50:48;;;;;;;84.80;47.45;;;9.00;91.80;;;;;;5071897;28;20027;-72
2021/03/04 02:53:14;;;;;;;82.03;46.72;;;9.00;91.90;;;;;;5048416;28;20029;-72
2021/03/04 02:55:40;;;;;;;85.97;48.80;;;9.00;92.00;;;;;;5051777;28;20032;-72
2021/03/04 02:58:11;;;;;;;85.07;49.08;;;9.00;92.00;;;;;;5051238;28;20405;-72
2021/03/04 03:00:38;;;;;;;91.35;48.72;;;9.00;92.10;;;;;;5052352;28;20351;-72
2021/03/04 03:03:09;;;;;;;93.45;53.22;;;9.00;92.10;;;;;;5066084;28;20028;-73
2021/03/04 03:05:37;;;;;;;83.72;47.42;;;9.00;92.20;;;;;;5052458;28;20079;-71
2021/03/04 03:08:04;;;;;;;82.25;48.63;;;9.00;92.20;;;;;;5051208;28;20032;-81
2021/03/04 03:10:30;;;;;;;91.75;51.58;;;9.00;92.20;;;;;;5052596;28;20035;-81
2021/03/04 03:13:00;;;;;;;86.75;51.17;;;9.00;92.30;;;;;;5067120;28;20117;-80
2021/03/04 03:15:26;;;;;;;85.63;47.85;;;9.00;92.50;;;;;;5072218;28;20451;-80
2021/03/04 03:17:52;;;;;;;92.53;52.65;;;9.00;92.40;;;;;;5058069;28;20386;-65
2021/03/04 03:20:20;;;;;;;98.68;54.45;;;8.90;92.90;;;;;;5042582;28;20028;-65
2021/03/04 03:22:47;;;;;;;98.47;55.95;;;8.90;92.70;;;;;;5064182;28;20044;-65
2021/03/04 03:25:14;;;;;;;95.15;53.15;;;8.90;92.70;;;;;;5052552;28;20452;-65
2021/03/04 03:27:41;;;;;;;87.10;50.70;;;8.80;92.60;;;;;;5050956;28;20024;-65
2021/03/04 03:30:10;;;;;;;85.05;49.50;;;8.80;92.50;;;;;;5051930;28;20557;-65
2021/03/04 03:32:38;;;;;;;81.00;47.88;;;8.80;92.50;;;;;;5047352;28;20494;-70
2021/03/04 03:35:05;;;;;;;87.60;50.75;;;8.80;92.30;;;;;;5070279;28;20036;-71
2021/03/04 03:37:31;;;;;;;85.43;47.90;;;8.70;92.40;;;;;;5062966;28;20032;-71
2021/03/04 03:39:57;;;;;;;81.22;46.33;;;8.70;92.40;;;;;;5070141;28;20029;-70
2021/03/04 03:42:24;;;;;;;88.35;51.47;;;8.60;92.40;;;;;;5053424;28;20029;-71
2021/03/04 03:44:50;;;;;;;81.75;45.15;;;8.60;92.50;;;;;;5031636;28;20037;-70
2021/03/04 03:47:16;;;;;;;81.18;45.40;;;8.60;92.40;;;;;;5050427;28;20125;-70
2021/03/04 03:49:43;;;;;;;82.93;45.55;;;8.60;92.50;;;;;;5050423;28;20434;-71
2021/03/04 03:52:10;;;;;;;76.55;45.03;;;8.60;92.40;;;;;;5049034;28;20053;-71
2021/03/04 03:54:36;;;;;;;80.60;44.85;;;8.60;92.30;;;;;;5051507;28;20022;-72
2021/03/04 03:57:04;;;;;;;75.53;42.28;;;8.60;92.30;;;;;;5050543;28;20068;-71
2021/03/04 03:59:31;;;;;;;77.13;43.72;;;8.60;92.30;;;;;;5051333;28;20052;-70
2021/03/04 04:01:58;;;;;;;77.97;42.42;;;8.60;92.20;;;;;;5056292;28;20059;-71
2021/03/04 04:04:24;;;;;;;82.13;45.33;;;8.60;92.20;;;;;;5071212;28;20119;-71
2021/03/04 04:06:52;;;;;;;83.15;45.63;;;8.60;92.10;;;;;;5061877;28;20052;-71
2021/03/04 04:09:17;;;;;;;80.78;44.28;;;8.60;92.10;;;;;;5055497;28;20025;-71
2021/03/04 04:11:43;;;;;;;78.45;42.88;;;8.50;92.20;;;;;;5054764;28;20040;-71
2021/03/04 04:14:09;;;;;;;76.60;42.45;;;8.40;92.50;;;;;;5055570;28;20108;-71
2021/03/04 04:16:35;;;;;;;76.82;41.10;;;8.40;92.40;;;;;;5060577;28;20032;-71
2021/03/04 04:19:01;;;;;;;76.93;42.58;;;8.30;92.40;;;;;;5087816;28;20052;-71
2021/03/04 04:21:27;;;;;;;79.70;41.38;;;8.40;92.30;;;;;;5077360;28;20033;-71
2021/03/04 04:23:53;;;;;;;70.05;40.05;;;8.40;92.30;;;;;;5038238;28;20504;-72
2021/03/04 04:26:19;;;;;;;71.75;38.20;;;8.40;92.40;;;;;;5038648;28;20079;-72
2021/03/04 04:28:44;;;;;;;69.70;37.03;;;8.30;92.30;;;;;;5055015;28;20024;-71
2021/03/04 04:31:11;;;;;;;63.28;35.60;;;8.30;92.20;;;;;;5066566;28;20376;-70
2021/03/04 04:33:36;;;;;;;72.28;38.15;;;8.20;92.20;;;;;;5074693;28;20038;-71
2021/03/04 04:36:02;;;;;;;67.07;36.53;;;8.10;92.20;;;;;;5070415;28;20027;-71
2021/03/04 04:38:28;;;;;;;65.20;35.30;;;8.10;92.20;;;;;;5074953;28;20028;-71
2021/03/04 04:40:53;;;;;;;65.45;34.83;;;8.20;92.20;;;;;;5072845;28;20016;-71
2021/03/04 04:43:19;;;;;;;63.03;33.60;;;8.20;92.10;;;;;;5073384;28;20039;-71
2021/03/04 04:45:45;;;;;;;66.68;34.75;;;8.20;91.90;;;;;;5074467;28;20045;-71
2021/03/04 04:48:10;;;;;;;59.25;33.22;;;8.20;91.80;;;;;;5054073;28;20512;-71
2021/03/04 04:50:36;;;;;;;62.67;34.90;;;8.20;91.80;;;;;;5053426;28;20370;-71
2021/03/04 04:53:01;;;;;;;64.38;33.03;;;8.20;91.70;;;;;;5046284;28;20030;-71
2021/03/04 04:55:27;;;;;;;67.90;35.22;;;8.20;91.70;;;;;;5033269;28;20132;-71
2021/03/04 04:57:52;;;;;;;66.50;33.95;;;8.10;91.70;;;;;;5049861;28;20392;-71
2021/03/04 05:00:19;;;;;;;69.18;34.17;;;8.10;91.80;;;;;;5066961;28;20021;-70
2021/03/04 05:02:44;;;;;;;71.47;35.28;;;8.10;91.70;;;;;;5053324;28;20115;-70
2021/03/04 05:05:10;;;;;;;74.95;36.97;;;8.10;91.80;;;;;;5053625;28;20041;-70
2021/03/04 05:07:36;;;;;;;69.85;36.47;;;8.10;91.80;;;;;;5058771;28;20397;-71
2021/03/04 05:10:06;;;;;;;73.63;35.65;;;8.00;91.90;;;;;;5054635;28;20029;-71
2021/03/04 05:12:32;;;;;;;78.20;36.60;;;8.00;92.00;;;;;;5057662;28;20246;-71
2021/03/04 05:14:57;;;;;;;82.03;37.67;;;8.00;92.00;;;;;;5034080;28;20510;-71
2021/03/04 05:17:23;;;;;;;67.85;36.25;;;8.10;91.90;;;;;;5046338;28;20021;-70
2021/03/04 05:19:48;;;;;;;71.15;35.42;;;8.10;92.00;;;;;;5054025;28;20037;-71
2021/03/04 05:22:14;;;;;;;72.20;35.72;;;8.00;92.00;;;;;;5062566;28;20103;-71
2021/03/04 05:24:39;;;;;;;71.97;34.97;;;8.00;92.00;;;;;;5074146;28;20416;-71
2021/03/04 05:27:05;;;;;;;75.43;36.45;;;8.00;91.90;;;;;;5062431;28;20043;-70
2021/03/04 05:29:31;;;;;;;72.65;33.65;;;8.00;92.00;;;;;;5054113;28;20036;-70
2021/03/04 05:31:56;;;;;;;71.60;35.90;;;7.90;92.10;;;;;;5053197;28;20024;-70
2021/03/04 05:34:22;;;;;;;76.18;36.17;;;7.90;92.10;;;;;;5054003;28;20140;-71
2021/03/04 05:36:47;;;;;;;79.70;37.20;;;7.90;92.00;;;;;;5053030;28;20447;-71
2021/03/04 05:39:13;;;;;;;74.97;34.42;;;7.90;92.00;;;;;;5054145;28;20029;-70
2021/03/04 05:41:40;;;;;;;74.82;34.28;;;7.90;92.10;;;;;;5046601;28;20121;-70
2021/03/04 05:44:05;;;;;;;73.40;34.67;;;7.80;92.00;;;;;;5033996;28;20030;-70
2021/03/04 05:46:33;;;;;;;70.82;33.95;;;7.80;92.00;;;;;;5037551;28;20040;-70
2021/03/04 05:49:00;;;;;;;67.07;31.60;;;7.80;92.00;;;;;;5053866;28;20085;-70
2021/03/04 05:51:26;;;;;;;68.05;30.88;;;7.80;91.90;;;;;;5055633;28;20039;-70
2021/03/04 05:53:57;;;;;;;60.53;28.83;;;7.80;91.80;;;;;;5042883;28;20036;-70
2021/03/04 05:56:24;;;;;;;61.65;29.17;;;7.80;92.00;;;;;;5044523;28;20116;-70
2021/03/04 05:58:50;;;;;;;64.07;29.38;;;7.70;91.90;;;;;;5053125;28;20025;-72
2021/03/04 06:01:17;;;;;;;65.47;30.65;;;7.70;91.90;;;;;;5054707;28;20041;-72
2021/03/04 06:03:43;;;;;;;59.72;27.77;;;7.70;91.90;;;;;;5073839;28;20021;-72
2021/03/04 06:06:09;;;;;;;62.30;27.15;;;7.70;91.90;;;;;;5069768;28;20103;-71
2021/03/04 06:08:35;;;;;;;60.25;27.63;;;7.50;91.80;;;;;;5053340;28;20029;-72
2021/03/04 06:11:04;;;;;;;61.25;29.33;;;7.50;91.90;;;;;;5051533;28;20021;-71
2021/03/04 06:13:30;;;;;;;53.50;25.77;;;7.50;92.00;;;;;;5073049;28;20025;-72
2021/03/04 06:15:57;;;;;;;48.40;24.42;;;7.40;92.00;;;;;;5070061;28;20504;-71
2021/03/04 06:18:23;;;;;;;54.60;25.52;;;7.40;91.90;;;;;;5053263;28;20352;-72
2021/03/04 06:20:48;;;;;;;56.10;24.65;;;7.40;91.90;;;;;;5052459;28;20016;-71
2021/03/04 06:23:14;;;;;;;52.80;26.75;;;7.30;91.90;;;;;;5055462;28;20032;-71
2021/03/04 06:25:43;;;;;;;60.30;26.67;;;7.30;91.80;;;;;;5072557;28;20039;-71
2021/03/04 06:28:09;;;;;;;54.92;26.30;;;7.20;91.90;;;;;;5069176;28;20063;-72
2021/03/04 06:30:42;;;;;;;53.10;26.25;;;7.20;92.00;;;;;;5070470;28;20052;-71
2021/03/04 06:33:12;;;;;;;52.00;26.58;;;7.20;92.20;;;;;;5067452;28;20025;-72
2021/03/04 06:35:43;;;;;;;54.95;27.30;;;7.20;92.10;;;;;;5072457;28;20028;-72
2021/03/04 06:38:19;;;;;;;55.03;26.30;;;7.20;92.30;;;;;;5052425;28;20454;-72
2021/03/04 06:40:46;;;;;;;65.35;28.13;;;7.20;92.30;;;;;;5052778;28;20473;-72
2021/03/04 06:43:25;;;;;;;59.97;27.08;;;7.20;92.20;;;;;;5051728;28;20493;-72
2021/03/04 06:46:02;;;;;;;53.33;25.92;;;7.20;92.20;;;;;;5051300;28;20069;-72
2021/03/04 06:48:28;;;;;;;51.88;26.33;;;7.20;92.30;;;;;;5032700;28;20475;-71
2021/03/04 06:51:02;;;;;;;56.80;24.98;;;7.20;92.10;;;;;;5049113;28;20128;-71
2021/03/04 06:53:29;;;;;;;52.05;24.80;;;7.20;92.00;;;;;;5048277;28;20028;-71
2021/03/04 06:55:55;;;;;;;52.50;26.15;;;7.30;92.10;;;;;;5057217;28;20021;-71
2021/03/04 06:58:27;;;;;;;54.17;25.15;;;7.40;92.00;;;;;;5062316;28;20409;-71
2021/03/04 07:01:01;;;;;;;56.00;26.00;;;7.40;92.00;;;;;;5054621;28;20033;-71
2021/03/04 07:03:38;;;;;;;52.03;24.67;;;7.40;92.00;;;;;;5052952;28;20025;-67
2021/03/04 07:06:05;;;;;;;52.53;23.80;;;7.50;92.30;;;;;;5050702;28;20041;-66
2021/03/04 07:08:34;;;;;;;58.35;26.40;;;7.50;92.40;;;;;;5043658;28;20029;-66
2021/03/04 07:11:02;;;;;;;53.92;26.42;;;7.50;92.00;;;;;;5048544;28;20029;-67
2021/03/04 07:13:30;;;;;;;50.67;23.27;;;7.50;92.10;;;;;;5051883;28;20029;-68
2021/03/04 07:15:56;;;;;;;58.65;25.20;;;7.60;92.50;;;;;;5050998;28;20037;-67
2021/03/04 07:18:22;;;;;;;59.20;26.85;;;7.60;92.10;;;;;;5031943;28;20018;-68
2021/03/04 07:20:48;;;;;;;55.67;24.75;;;7.70;91.90;;;;;;5058220;28;20424;-67
2021/03/04 07:23:14;;;;;;;51.22;24.77;;;7.70;91.80;;;;;;5049573;28;20021;-67
2021/03/04 07:25:40;;;;;;;52.95;25.45;;;7.70;91.70;;;;;;5051004;28;20040;-67
2021/03/04 07:28:06;;;;;;;53.65;25.48;;;7.70;91.80;;;;;;5066785;28;20035;-66
2021/03/04 07:30:32;;;;;;;58.53;27.00;;;7.70;91.70;;;;;;5071656;28;20060;-67
2021/03/04 07:32:58;;;;;;;63.42;29.10;;;7.70;91.80;;;;;;5047291;28;20057;-67
2021/03/04 07:35:23;;;;;;;52.65;27.40;;;7.80;91.70;;;;;;5045435;28;20039;-67
2021/03/04 07:37:49;;;;;;;50.50;24.13;;;7.80;91.70;;;;;;5049788;28;20021;-68
2021/03/04 07:40:15;;;;;;;47.63;22.63;;;7.80;91.80;;;;;;5051043;28;20017;-68
2021/03/04 07:42:41;;;;;;;51.53;25.08;;;7.80;91.70;;;;;;5050558;28;20029;-68
2021/03/04 07:45:13;;;;;;;53.10;24.08;;;7.90;91.60;;;;;;5030908;28;20508;-67
2021/03/04 07:47:40;;;;;;;48.55;22.98;;;7.90;91.70;;;;;;5060132;28;20094;-67
2021/03/04 07:50:16;;;;;;;44.08;22.27;;;7.90;91.60;;;;;;5040629;28;20104;-67
2021/03/04 07:52:42;;;;;;;45.22;22.17;;;7.90;91.60;;;;;;5042031;28;20041;-68
2021/03/04 07:55:13;;;;;;;47.15;21.60;;;7.90;91.30;;;;;;5034304;28;20066;-68
2021/03/04 07:57:47;;;;;;;45.20;20.17;;;7.90;91.20;;;;;;5062362;28;20431;-67
2021/03/04 08:00:14;;;;;;;49.30;21.00;;;7.90;91.00;;;;;;5071532;28;20062;-67
2021/03/04 08:02:44;;;;;;;44.78;20.50;;;7.90;90.90;;;;;;5068017;28;20071;-68
2021/03/04 08:05:14;;;;;;;40.10;19.73;;;7.90;90.90;;;;;;5061085;28;20037;-67
2021/03/04 08:07:42;;;;;;;44.35;21.20;;;7.80;91.00;;;;;;5048970;28;20033;-68
2021/03/04 08:10:44;;;;;;;49.08;22.13;;;7.90;90.80;;;;;;5044965;28;20113;-67
2021/03/04 08:13:10;;;;;;;48.58;23.08;;;7.80;90.90;;;;;;5032325;28;20041;-67
2021/03/04 08:15:40;;;;;;;48.40;23.17;;;7.80;90.70;;;;;;5050832;28;20079;-67
2021/03/04 08:18:25;;;;;;;48.72;23.20;;;7.80;90.90;;;;;;5050426;28;20120;-68
2021/03/04 08:20:52;;;;;;;47.22;23.10;;;7.70;91.00;;;;;;5049449;28;20075;-68
2021/03/04 08:23:19;;;;;;;45.92;22.45;;;7.60;91.10;;;;;;5051764;28;20029;-68
2021/03/04 08:25:46;;;;;;;44.85;20.90;;;7.60;91.20;;;;;;5050982;28;20389;-68
2021/03/04 08:28:24;;;;;;;48.22;21.23;;;7.60;91.20;;;;;;5063731;28;20024;-68
2021/03/04 08:30:50;;;;;;;49.67;22.58;;;7.70;91.20;;;;;;5048848;28;20506;-66
2021/03/04 08:33:15;;;;;;;46.05;22.08;;;7.70;91.20;;;;;;5058043;28;20028;-66
2021/03/04 08:35:45;;;;;;;39.90;18.92;;;7.60;91.10;;;;;;5071519;28;20025;-66
2021/03/04 08:38:13;;;;;;;38.60;18.70;;;7.60;91.10;;;;;;5049388;28;20021;-65
2021/03/04 08:40:41;;;;;;;33.92;17.52;;;7.60;91.10;;;;;;5050652;28;20096;-65
2021/03/04 08:43:15;;;;;;;37.08;18.30;;;7.60;91.10;;;;;;5050057;28;20055;-65
2021/03/04 08:45:41;;;;;;;41.90;18.38;;;7.70;91.00;;;;;;5050468;28;20041;-65
2021/03/04 08:48:08;;;;;;;34.03;16.58;;;7.70;90.90;;;;;;5052843;28;20030;-65
2021/03/04 08:50:36;;;;;;;40.72;18.80;;;7.70;90.80;;;;;;5049903;28;20056;-66
2021/03/04 08:53:06;;;;;;;41.63;18.13;;;7.60;90.80;;;;;;5050340;28;20046;-65
2021/03/04 08:55:35;;;;;;;37.13;16.65;;;7.60;90.90;;;;;;5053546;28;20050;-65
2021/03/04 08:58:06;;;;;;;36.60;16.92;;;7.70;90.90;;;;;;5051747;28;20037;-65
2021/03/04 09:00:32;;;;;;;33.78;16.42;;;7.70;90.60;;;;;;5048831;28;20808;-65
2021/03/04 09:03:11;;;;;;;35.78;16.92;;;7.70;90.40;;;;;;5054751;28;20029;-66
2021/03/04 09:05:38;;;;;;;35.95;16.10;;;7.70;90.40;;;;;;5051749;28;20394;-76
2021/03/04 09:08:12;;;;;;;36.83;17.48;;;7.70;90.10;;;;;;5056098;28;20039;-76
2021/03/04 09:10:45;;;;;;;39.33;16.03;;;7.60;90.00;;;;;;5055060;28;20035;-76
2021/03/04 09:13:18;;;;;;;33.45;15.63;;;7.60;90.10;;;;;;5051111;28;20119;-76
2021/03/04 09:16:03;;;;;;;41.20;16.73;;;7.60;90.20;;;;;;5058137;28;20409;-76
2021/03/04 09:18:29;;;;;;;39.35;19.13;;;7.60;90.00;;;;;;5051890;28;20033;-76
2021/03/04 09:20:55;;;;;;;35.60;19.52;;;7.70;90.00;;;;;;5054729;28;20123;-76
2021/03/04 09:23:24;;;;;;;39.33;18.60;;;7.70;89.50;;;;;;5053338;28;20017;-76
2021/03/04 09:25:57;;;;;;;38.60;16.42;;;7.50;90.10;;;;;;5059873;28;20515;-76
2021/03/04 09:28:23;;;;;;;39.05;18.42;;;7.60;90.30;;;;;;5070609;28;20052;-75
2021/03/04 09:30:49;;;;;;;39.85;16.95;;;7.50;90.00;;;;;;5085500;28;20036;-75
2021/03/04 09:33:22;;;;;;;41.05;18.75;;;7.50;90.10;;;;;;5055549;28;20025;-76
2021/03/04 09:36:00;;;;;;;33.13;16.90;;;7.50;90.00;;;;;;5052282;28;20032;-76
2021/03/04 09:38:27;;;;;;;37.17;19.15;;;7.50;90.10;;;;;;5053925;28;20064;-75
2021/03/04 09:40:54;;;;;;;36.95;18.23;;;7.60;90.20;;;;;;5053083;28;20029;-75
2021/03/04 09:43:22;;;;;;;38.45;16.58;;;7.60;90.20;;;;;;5052466;28;20354;-76
2021/03/04 09:45:50;;;;;;;32.22;16.75;;;7.70;90.50;;;;;;5038211;28;20032;-76
2021/03/04 09:48:17;;;;;;;33.47;16.08;;;7.70;90.30;;;;;;5049133;28;20093;-76
2021/03/04 09:50:54;;;;;;;34.10;15.57;;;7.70;90.30;;;;;;5063162;28;20029;-75
2021/03/04 09:53:20;;;;;;;32.40;15.88;;;7.70;90.10;;;;;;5053484;28;20025;-76
2021/03/04 09:55:46;;;;;;;35.10;16.02;;;7.60;89.70;;;;;;5057949;28;20033;-76
2021/03/04 09:58:18;;;;;;;32.22;16.85;;;7.50;90.10;;;;;;5061803;28;20028;-75
2021/03/04 10:00:45;;;;;;;33.35;15.50;;;7.50;90.10;;;;;;5057432;28;20036;-76
2021/03/04 10:03:13;;;;;;;35.13;16.08;;;7.50;90.30;;;;;;5070282;28;20095;-76
2021/03/04 10:05:46;;;;;;;35.38;18.25;;;7.60;90.20;;;;;;5058898;28;20029;-75
2021/03/04 10:08:12;;;;;;;31.05;15.40;;;7.60;89.80;;;;;;5062472;28;20123;-76
2021/03/04 10:10:38;;;;;;;32.47;15.68;;;7.60;90.10;;;;;;5060037;28;20025;-76
2021/03/04 10:13:03;;;;;;;31.02;14.20;;;7.60;89.90;;;;;;5065733;28;20040;-76
2021/03/04 10:15:38;;;;;;;31.05;15.77;;;7.60;89.90;;;;;;5059985;28;20029;-75
2021/03/04 10:18:09;;;;;;;30.58;15.63;;;7.60;89.20;;;;;;5051735;28;20108;-75
2021/03/04 10:20:37;;;;;;;32.50;15.73;;;7.60;89.50;;;;;;5054998;28;20060;-75
2021/03/04 10:23:04;;;;;;;34.50;17.17;;;7.60;90.00;;;;;;5050726;28;20025;-76
2021/03/04 10:25:30;;;;;;;33.42;15.43;;;7.60;90.00;;;;;;5043120;28;20048;-75
2021/03/04 10:27:57;;;;;;;31.00;14.85;;;7.70;89.80;;;;;;5054933;28;20020;-76
2021/03/04 10:30:23;;;;;;;33.78;16.92;;;7.70;89.60;;;;;;5053348;28;20588;-75
2021/03/04 10:32:48;;;;;;;30.67;16.30;;;7.80;89.50;;;;;;5049559;28;20021;-75
2021/03/04 10:35:16;;;;;;;34.70;16.55;;;7.70;89.50;;;;;;5051423;28;20057;-75
2021/03/04 10:37:42;;;;;;;35.60;16.67;;;7.70;89.60;;;;;;5065085;28;20034;-75
2021/03/04 10:40:09;;;;;;;34.08;15.90;;;7.70;89.50;;;;;;5049042;28;20025;-75
2021/03/04 10:42:36;;;;;;;35.97;16.17;;;7.80;89.50;;;;;;5051227;28;20583;-75
2021/03/04 10:45:03;;;;;;;36.08;16.35;;;7.80;89.60;;;;;;5051308;28;20032;-76
2021/03/04 10:47:29;;;;;;;32.45;16.70;;;7.80;89.70;;;;;;5059888;28;20032;-76
2021/03/04 10:49:56;;;;;;;39.90;17.63;;;7.90;89.70;;;;;;5052788;28;20123;-76
2021/03/04 10:52:22;;;;;;;33.70;17.10;;;7.90;89.50;;;;;;5063720;28;20480;-76
2021/03/04 10:54:49;;;;;;;34.47;16.98;;;7.80;89.40;;;;;;5062492;28;20025;-76
2021/03/04 10:57:15;;;;;;;34.55;17.60;;;7.90;89.90;;;;;;5051521;28;20116;-76
2021/03/04 10:59:40;;;;;;;36.08;17.50;;;7.90;89.80;;;;;;5051243;28;20446;-76
2021/03/04 11:02:06;;;;;;;33.85;16.65;;;8.00;89.80;;;;;;5051554;28;20071;-77
2021/03/04 11:04:31;;;;;;;30.35;15.88;;;8.00;89.80;;;;;;5051791;28;20036;-76
2021/03/04 11:06:57;;;;;;;29.33;15.48;;;8.00;89.40;;;;;;5049905;28;20382;-77
2021/03/04 11:09:22;;;;;;;35.90;16.95;;;8.10;89.10;;;;;;5051329;28;20028;-76
2021/03/04 11:11:48;;;;;;;26.08;14.20;;;8.10;88.70;;;;;;5048191;28;20082;-75
2021/03/04 11:14:14;;;;;;;27.95;15.77;;;8.00;88.20;;;;;;5049505;28;20534;-72
2021/03/04 11:16:39;;;;;;;32.08;14.55;;;8.00;87.80;;;;;;5048678;28;20047;-74
2021/03/04 11:19:05;;;;;;;27.23;14.15;;;7.90;86.40;;;;;;5053215;28;20116;-75
2021/03/04 11:21:30;;;;;;;26.88;13.25;;;7.80;87.00;;;;;;5051428;28;20025;-75
2021/03/04 11:23:56;;;;;;;28.60;13.65;;;7.80;87.50;;;;;;5051783;28;20039;-73
2021/03/04 11:26:22;;;;;;;24.10;13.48;;;7.80;87.30;;;;;;5058238;28;20181;-76
2021/03/04 11:28:48;;;;;;;25.38;13.73;;;7.80;86.70;;;;;;5051860;28;20177;-74
2021/03/04 11:31:13;;;;;;;23.02;12.65;;;7.80;85.30;;;;;;5053196;28;20097;-75
2021/03/04 11:33:38;;;;;;;23.40;12.07;;;7.80;85.50;;;;;;5055944;28;20025;-75
2021/03/04 11:36:04;;;;;;;23.65;12.77;;;7.80;85.60;;;;;;5057346;28;20389;-75
2021/03/04 11:38:30;;;;;;;23.70;12.35;;;7.70;85.50;;;;;;5053983;28;20025;-76
2021/03/04 11:40:55;;;;;;;22.92;11.82;;;7.70;84.50;;;;;;5050838;28;20420;-74
2021/03/04 11:43:21;;;;;;;24.33;11.27;;;7.60;84.70;;;;;;5045180;28;20034;-74
2021/03/04 11:45:46;;;;;;;21.92;11.43;;;7.60;84.10;;;;;;5051326;28;20493;-75
2021/03/04 11:48:12;;;;;;;19.88;10.60;;;7.50;84.60;;;;;;5054575;28;20481;-76
2021/03/04 11:50:37;;;;;;;21.00;11.35;;;7.50;85.20;;;;;;5051679;28;20060;-76
2021/03/04 11:53:05;;;;;;;20.92;10.50;;;7.50;84.60;;;;;;5048463;28;20025;-73
2021/03/04 11:55:32;;;;;;;20.38;10.30;;;7.50;83.80;;;;;;5050221;28;20052;-69
2021/03/04 11:57:57;;;;;;;19.00;10.52;;;7.40;83.70;;;;;;5045947;28;20037;-71
2021/03/04 12:00:23;;;;;;;16.65;9.68;;;7.50;84.10;;;;;;5047141;28;20078;-71
2021/03/04 12:02:48;;;;;;;20.20;10.70;;;7.50;84.30;;;;;;5066775;28;20081;-70
2021/03/04 12:05:15;;;;;;;17.17;9.32;;;7.50;84.20;;;;;;5063017;28;20398;-71
2021/03/04 12:07:40;;;;;;;19.75;9.82;;;7.50;84.20;;;;;;5050809;28;20029;-72
2021/03/04 12:10:06;;;;;;;16.02;9.55;;;7.50;84.20;;;;;;5050793;28;20025;-73
2021/03/04 12:12:32;;;;;;;21.10;10.10;;;7.60;84.90;;;;;;5051021;28;20355;-69
2021/03/04 12:14:59;;;;;;;16.27;9.65;;;7.60;84.30;;;;;;5049802;28;20032;-74
2021/03/04 12:17:24;;;;;;;18.90;10.00;;;7.60;83.80;;;;;;5051017;28;20552;-71
2021/03/04 12:19:49;;;;;;;21.63;11.77;;;7.60;83.60;;;;;;5050525;28;20115;-74
2021/03/04 12:22:15;;;;;;;25.55;11.52;;;7.50;83.70;;;;;;5051280;28;20017;-73
2021/03/04 12:24:41;;;;;;;19.70;10.75;;;7.50;84.70;;;;;;5050488;28;20079;-74
2021/03/04 12:27:07;;;;;;;22.92;12.13;;;7.50;84.20;;;;;;5050855;28;20124;-72
2021/03/04 12:29:32;;;;;;;19.20;10.60;;;7.40;84.60;;;;;;5054040;28;20052;-77
2021/03/04 12:31:58;;;;;;;19.83;11.20;;;7.40;85.20;;;;;;5048807;28;20490;-77
2021/03/04 12:34:23;;;;;;;17.65;10.57;;;7.30;85.40;;;;;;5045230;28;20029;-76
2021/03/04 12:36:49;;;;;;;17.90;10.43;;;7.30;85.50;;;;;;5044418;28;20068;-75